sensor_id;sensor_type;location;lat;lon;timestamp;pressure;altitude;pressure_sealevel;temperature;humidity
41202;BME280;26936;50.524;8.684;2023-02-19T00:02:14;99610.38;;;9.05;100.00
41202;BME280;26936;50.524;8.684;2023-02-19T00:04:39;99601.25;;;9.01;100.00
41202;BME280;26936;50.524;8.684;2023-02-19T00:07:04;99598.44;;;9.01;100.00
41202;BME280;26936;50.524;8.684;2023-02-19T00:09:30;99590.81;;;9.01;100.00
41202;BME280;26936;50.524;8.684;2023-02-19T00:11:55;99589.13;;;9.04;100.00
41202;BME280;26936;50.524;8.684;2023-02-19T00:14:20;99593.09;;;9.06;100.00
41202;BME280;26936;50.524;8.684;2023-02-19T00:16:46;99600.28;;;9.07;100.00
41202;BME280;26936;50.524;8.684;2023-02-19T00:19:14;99600.72;;;9.06;100.00
41202;BME280;26936;50.524;8.684;2023-02-19T00:21:40;99596.69;;;9.07;100.00
41202;BME280;26936;50.524;8.684;2023-02-19T00:24:06;99598.88;;;8.99;100.00
41202;BME280;26936;50.524;8.684;2023-02-19T00:26:32;99599.16;;;9.05;100.00
41202;BME280;26936;50.524;8.684;2023-02-19T00:28:58;99593.97;;;9.03;100.00
41202;BME280;26936;50.524;8.684;2023-02-19T00:31:29;99577.81;;;9.07;100.00
41202;BME280;26936;50.524;8.684;2023-02-19T00:33:57;99583.34;;;9.11;100.00
41202;BME280;26936;50.524;8.684;2023-02-19T00:36:23;99578.09;;;9.13;100.00
41202;BME280;26936;50.524;8.684;2023-02-19T00:38:49;99568.25;;;9.05;100.00
41202;BME280;26936;50.524;8.684;2023-02-19T00:41:15;99570.63;;;9.06;100.00
41202;BME280;26936;50.524;8.684;2023-02-19T00:46:31;99572.63;;;9.06;100.00
41202;BME280;26936;50.524;8.684;2023-02-19T00:48:57;99576.22;;;9.06;100.00
41202;BME280;26936;50.524;8.684;2023-02-19T00:51:26;99565.78;;;9.07;100.00
41202;BME280;26936;50.524;8.684;2023-02-19T00:53:52;99561.81;;;9.04;100.00
41202;BME280;26936;50.524;8.684;2023-02-19T00:56:18;99557.44;;;9.03;100.00
41202;BME280;26936;50.524;8.684;2023-02-19T00:58:44;99564.38;;;8.99;100.00
41202;BME280;26936;50.524;8.684;2023-02-19T01:01:10;99566.31;;;9.02;100.00
41202;BME280;26936;50.524;8.684;2023-02-19T01:03:36;99563.75;;;9.07;100.00
41202;BME280;26936;50.524;8.684;2023-02-19T01:06:02;99564.19;;;9.06;100.00
41202;BME280;26936;50.524;8.684;2023-02-19T01:08:28;99568.50;;;9.10;100.00
41202;BME280;26936;50.524;8.684;2023-02-19T01:10:55;99568.09;;;9.12;100.00
41202;BME280;26936;50.524;8.684;2023-02-19T01:13:20;99565.59;;;9.14;100.00
41202;BME280;26936;50.524;8.684;2023-02-19T01:15:45;99561.50;;;9.18;100.00
41202;BME280;26936;50.524;8.684;2023-02-19T01:18:11;99560.94;;;9.23;100.00
41202;BME280;26936;50.524;8.684;2023-02-19T01:20:40;99559.22;;;9.29;100.00
41202;BME280;26936;50.524;8.684;2023-02-19T01:23:07;99554.09;;;9.24;100.00
41202;BME280;26936;50.524;8.684;2023-02-19T01:25:32;99551.97;;;9.28;100.00
41202;BME280;26936;50.524;8.684;2023-02-19T01:27:57;99556.75;;;9.31;100.00
41202;BME280;26936;50.524;8.684;2023-02-19T01:30:23;99551.22;;;9.28;100.00
41202;BME280;26936;50.524;8.684;2023-02-19T01:32:48;99543.41;;;9.19;100.00
41202;BME280;26936;50.524;8.684;2023-02-19T01:35:13;99545.16;;;9.13;100.00
41202;BME280;26936;50.524;8.684;2023-02-19T01:37:39;99545.94;;;9.14;100.00
41202;BME280;26936;50.524;8.684;2023-02-19T01:40:04;99542.25;;;9.17;100.00
41202;BME280;26936;50.524;8.684;2023-02-19T01:42:29;99540.66;;;9.16;100.00
41202;BME280;26936;50.524;8.684;2023-02-19T01:45:34;99530.59;;;9.18;100.00
41202;BME280;26936;50.524;8.684;2023-02-19T01:48:09;99528.31;;;9.13;100.00
41202;BME280;26936;50.524;8.684;2023-02-19T01:50:43;99530.03;;;9.07;100.00
41202;BME280;26936;50.524;8.684;2023-02-19T01:53:11;99531.19;;;9.10;100.00
41202;BME280;26936;50.524;8.684;2023-02-19T01:55:39;99533.13;;;9.13;100.00
41202;BME280;26936;50.524;8.684;2023-02-19T01:58:05;99527.59;;;9.09;100.00
41202;BME280;26936;50.524;8.684;2023-02-19T02:00:32;99520.31;;;9.12;100.00
41202;BME280;26936;50.524;8.684;2023-02-19T02:02:58;99527.22;;;9.07;100.00
41202;BME280;26936;50.524;8.684;2023-02-19T02:07:52;99522.47;;;9.20;100.00
41202;BME280;26936;50.524;8.684;2023-02-19T02:10:36;99513.47;;;9.13;100.00
41202;BME280;26936;50.524;8.684;2023-02-19T02:13:02;99513.47;;;9.13;100.00
41202;BME280;26936;50.524;8.684;2023-02-19T02:15:34;99512.66;;;9.12;100.00
41202;BME280;26936;50.524;8.684;2023-02-19T02:23:28;99498.25;;;9.26;100.00
41202;BME280;26936;50.524;8.684;2023-02-19T02:26:21;99503.88;;;9.26;100.00
41202;BME280;26936;50.524;8.684;2023-02-19T02:30:05;99492.38;;;9.21;100.00
41202;BME280;26936;50.524;8.684;2023-02-19T02:32:10;99486.84;;;9.17;100.00
41202;BME280;26936;50.524;8.684;2023-02-19T02:34:46;99489.91;;;9.23;100.00
41202;BME280;26936;50.524;8.684;2023-02-19T02:37:13;99506.41;;;9.21;100.00
41202;BME280;26936;50.524;8.684;2023-02-19T02:39:40;99497.91;;;9.24;100.00
41202;BME280;26936;50.524;8.684;2023-02-19T02:42:06;99487.88;;;9.23;100.00
41202;BME280;26936;50.524;8.684;2023-02-19T02:44:50;99487.03;;;9.26;100.00
41202;BME280;26936;50.524;8.684;2023-02-19T02:47:38;99488.00;;;9.20;100.00
41202;BME280;26936;50.524;8.684;2023-02-19T02:50:07;99493.00;;;9.12;100.00
41202;BME280;26936;50.524;8.684;2023-02-19T02:52:35;99490.09;;;9.16;100.00
41202;BME280;26936;50.524;8.684;2023-02-19T02:55:22;99481.94;;;9.05;100.00
41202;BME280;26936;50.524;8.684;2023-02-19T02:57:48;99492.91;;;9.16;100.00
41202;BME280;26936;50.524;8.684;2023-02-19T03:00:14;99486.16;;;9.13;100.00
41202;BME280;26936;50.524;8.684;2023-02-19T03:02:41;99487.81;;;9.11;100.00
41202;BME280;26936;50.524;8.684;2023-02-19T03:05:14;99489.94;;;9.07;100.00
41202;BME280;26936;50.524;8.684;2023-02-19T03:08:06;99480.34;;;9.04;100.00
41202;BME280;26936;50.524;8.684;2023-02-19T03:11:04;99473.53;;;9.05;100.00
41202;BME280;26936;50.524;8.684;2023-02-19T03:13:55;99471.13;;;9.04;100.00
41202;BME280;26936;50.524;8.684;2023-02-19T03:16:43;99480.00;;;9.02;100.00
41202;BME280;26936;50.524;8.684;2023-02-19T03:19:30;99490.19;;;8.96;100.00
41202;BME280;26936;50.524;8.684;2023-02-19T03:22:08;99486.06;;;9.01;100.00
41202;BME280;26936;50.524;8.684;2023-02-19T03:25:12;99480.63;;;8.94;100.00
41202;BME280;26936;50.524;8.684;2023-02-19T03:27:59;99486.69;;;8.92;100.00
41202;BME280;26936;50.524;8.684;2023-02-19T03:30:32;99485.38;;;8.81;100.00
41202;BME280;26936;50.524;8.684;2023-02-19T03:33:02;99488.97;;;8.81;100.00
41202;BME280;26936;50.524;8.684;2023-02-19T03:35:35;99491.84;;;8.78;100.00
41202;BME280;26936;50.524;8.684;2023-02-19T03:38:11;99500.38;;;8.90;100.00
41202;BME280;26936;50.524;8.684;2023-02-19T03:41:07;99482.66;;;8.93;100.00
41202;BME280;26936;50.524;8.684;2023-02-19T03:43:41;99482.22;;;8.95;100.00
41202;BME280;26936;50.524;8.684;2023-02-19T03:46:21;99485.03;;;8.95;100.00
41202;BME280;26936;50.524;8.684;2023-02-19T03:49:04;99485.47;;;8.93;100.00
41202;BME280;26936;50.524;8.684;2023-02-19T03:51:40;99486.25;;;8.94;100.00
41202;BME280;26936;50.524;8.684;2023-02-19T03:54:18;99472.22;;;8.94;100.00
41202;BME280;26936;50.524;8.684;2023-02-19T03:56:51;99478.16;;;8.96;100.00
41202;BME280;26936;50.524;8.684;2023-02-19T04:01:55;99480.00;;;9.02;100.00
41202;BME280;26936;50.524;8.684;2023-02-19T04:04:35;99480.00;;;9.02;100.00
41202;BME280;26936;50.524;8.684;2023-02-19T04:07:02;99469.19;;;9.01;100.00
41202;BME280;26936;50.524;8.684;2023-02-19T04:09:32;99482.03;;;9.02;100.00
41202;BME280;26936;50.524;8.684;2023-02-19T04:12:00;99478.34;;;9.05;100.00
41202;BME280;26936;50.524;8.684;2023-02-19T04:14:30;99483.88;;;9.08;100.00
41202;BME280;26936;50.524;8.684;2023-02-19T04:17:00;99493.06;;;9.09;100.00
41202;BME280;26936;50.524;8.684;2023-02-19T04:19:29;99493.34;;;9.14;100.00
41202;BME280;26936;50.524;8.684;2023-02-19T04:21:57;99488.09;;;9.16;100.00
41202;BME280;26936;50.524;8.684;2023-02-19T04:24:30;99492.53;;;9.14;100.00
41202;BME280;26936;50.524;8.684;2023-02-19T04:26:57;99497.22;;;9.04;100.00
41202;BME280;26936;50.524;8.684;2023-02-19T04:29:23;99496.97;;;8.99;100.00
41202;BME280;26936;50.524;8.684;2023-02-19T04:31:48;99509.34;;;9.01;100.00
41202;BME280;26936;50.524;8.684;2023-02-19T04:34:13;99500.91;;;9.01;100.00
41202;BME280;26936;50.524;8.684;2023-02-19T04:36:38;99504.06;;;9.03;100.00
41202;BME280;26936;50.524;8.684;2023-02-19T04:39:04;99505.28;;;9.02;100.00
41202;BME280;26936;50.524;8.684;2023-02-19T04:41:29;99510.72;;;9.09;100.00
41202;BME280;26936;50.524;8.684;2023-02-19T04:43:54;99522.13;;;9.02;100.00
41202;BME280;26936;50.524;8.684;2023-02-19T04:46:19;99524.78;;;9.09;100.00
41202;BME280;26936;50.524;8.684;2023-02-19T04:48:45;99522.84;;;9.06;100.00
41202;BME280;26936;50.524;8.684;2023-02-19T04:51:10;99522.13;;;9.02;100.00
41202;BME280;26936;50.524;8.684;2023-02-19T04:53:36;99525.22;;;9.08;100.00
41202;BME280;26936;50.524;8.684;2023-02-19T04:56:10;99532.84;;;9.07;100.00
41202;BME280;26936;50.524;8.684;2023-02-19T04:58:36;99519.44;;;9.15;100.00
41202;BME280;26936;50.524;8.684;2023-02-19T05:01:02;99532.84;;;9.07;100.00
41202;BME280;26936;50.524;8.684;2023-02-19T05:03:27;99530.03;;;9.07;100.00
41202;BME280;26936;50.524;8.684;2023-02-19T05:05:53;99540.06;;;9.08;100.00
41202;BME280;26936;50.524;8.684;2023-02-19T05:08:18;99545.25;;;9.10;100.00
41202;BME280;26936;50.524;8.684;2023-02-19T05:10:43;99546.81;;;9.11;100.00
41202;BME280;26936;50.524;8.684;2023-02-19T05:13:09;99547.63;;;9.11;100.00
41202;BME280;26936;50.524;8.684;2023-02-19T05:15:34;99551.38;;;9.05;100.00
41202;BME280;26936;50.524;8.684;2023-02-19T05:17:59;99549.03;;;9.03;100.00
41202;BME280;26936;50.524;8.684;2023-02-19T05:20:25;99552.06;;;9.09;100.00
41202;BME280;26936;50.524;8.684;2023-02-19T05:22:50;99549.38;;;9.05;100.00
41202;BME280;26936;50.524;8.684;2023-02-19T05:25:15;99556.22;;;9.04;100.00
41202;BME280;26936;50.524;8.684;2023-02-19T05:27:41;99553.69;;;9.10;100.00
41202;BME280;26936;50.524;8.684;2023-02-19T05:30:06;99557.69;;;9.09;100.00
41202;BME280;26936;50.524;8.684;2023-02-19T05:32:34;99560.88;;;9.11;100.00
41202;BME280;26936;50.524;8.684;2023-02-19T05:34:59;99562.19;;;9.06;100.00
41202;BME280;26936;50.524;8.684;2023-02-19T05:37:24;99564.28;;;9.02;100.00
41202;BME280;26936;50.524;8.684;2023-02-19T05:39:49;99574.13;;;9.10;100.00
41202;BME280;26936;50.524;8.684;2023-02-19T05:42:15;99568.50;;;9.10;100.00
41202;BME280;26936;50.524;8.684;2023-02-19T05:44:41;99571.75;;;9.09;100.00
41202;BME280;26936;50.524;8.684;2023-02-19T05:47:06;99566.91;;;9.09;100.00
41202;BME280;26936;50.524;8.684;2023-02-19T05:49:31;99570.25;;;9.04;100.00
41202;BME280;26936;50.524;8.684;2023-02-19T05:51:57;99592.56;;;9.11;100.00
41202;BME280;26936;50.524;8.684;2023-02-19T05:54:22;99582.28;;;9.05;100.00
41202;BME280;26936;50.524;8.684;2023-02-19T05:56:47;99579.41;;;9.08;100.00
41202;BME280;26936;50.524;8.684;2023-02-19T05:59:16;99581.13;;;9.02;100.00
41202;BME280;26936;50.524;8.684;2023-02-19T06:01:42;99593.09;;;9.06;100.00
41202;BME280;26936;50.524;8.684;2023-02-19T06:04:09;99590.00;;;9.01;100.00
41202;BME280;26936;50.524;8.684;2023-02-19T06:06:35;99601.53;;;9.06;100.00
41202;BME280;26936;50.524;8.684;2023-02-19T06:09:01;99593.25;;;8.99;100.00
41202;BME280;26936;50.524;8.684;2023-02-19T06:11:28;99601.31;;;8.97;100.00
41202;BME280;26936;50.524;8.684;2023-02-19T06:13:53;99609.06;;;8.93;100.00
41202;BME280;26936;50.524;8.684;2023-02-19T06:16:19;99608.09;;;9.00;100.00
41202;BME280;26936;50.524;8.684;2023-02-19T06:18:46;99613.63;;;9.03;100.00
41202;BME280;26936;50.524;8.684;2023-02-19T06:21:12;99604.84;;;9.01;100.00
41202;BME280;26936;50.524;8.684;2023-02-19T06:23:38;99616.00;;;9.05;100.00
41202;BME280;26936;50.524;8.684;2023-02-19T06:26:18;99617.13;;;9.07;100.00
41202;BME280;26936;50.524;8.684;2023-02-19T06:28:45;99623.63;;;9.04;100.00
41202;BME280;26936;50.524;8.684;2023-02-19T06:31:11;99619.25;;;9.03;100.00
41202;BME280;26936;50.524;8.684;2023-02-19T06:33:37;99621.78;;;9.14;100.00
41202;BME280;26936;50.524;8.684;2023-02-19T06:36:10;99630.16;;;9.17;100.00
41202;BME280;26936;50.524;8.684;2023-02-19T06:38:36;99627.41;;;9.14;100.00
41202;BME280;26936;50.524;8.684;2023-02-19T06:41:02;99630.66;;;9.12;100.00
41202;BME280;26936;50.524;8.684;2023-02-19T06:43:28;99638.22;;;9.15;100.00
41202;BME280;26936;50.524;8.684;2023-02-19T06:45:56;99635.84;;;9.14;100.00
41202;BME280;26936;50.524;8.684;2023-02-19T06:48:22;99645.44;;;9.16;100.00
41202;BME280;26936;50.524;8.684;2023-02-19T06:50:47;99648.59;;;9.18;100.00
41202;BME280;26936;50.524;8.684;2023-02-19T06:53:12;99647.44;;;9.16;100.00
41202;BME280;26936;50.524;8.684;2023-02-19T06:55:38;99654.47;;;9.24;100.00
41202;BME280;26936;50.524;8.684;2023-02-19T06:58:05;99654.56;;;9.20;100.00
41202;BME280;26936;50.524;8.684;2023-02-19T07:00:30;99656.25;;;9.18;100.00
41202;BME280;26936;50.524;8.684;2023-02-19T07:02:55;99659.41;;;9.20;100.00
41202;BME280;26936;50.524;8.684;2023-02-19T07:05:22;99660.53;;;9.22;100.00
41202;BME280;26936;50.524;8.684;2023-02-19T07:07:47;99657.03;;;9.18;100.00
41202;BME280;26936;50.524;8.684;2023-02-19T07:10:13;99668.69;;;9.17;100.00
41202;BME280;26936;50.524;8.684;2023-02-19T07:12:38;99669.94;;;9.16;100.00
41202;BME280;26936;50.524;8.684;2023-02-19T07:15:03;99684.41;;;9.14;100.00
41202;BME280;26936;50.524;8.684;2023-02-19T07:17:29;99679.22;;;9.13;100.00
41202;BME280;26936;50.524;8.684;2023-02-19T07:19:54;99688.19;;;9.24;100.00
41202;BME280;26936;50.524;8.684;2023-02-19T07:22:19;99686.63;;;9.23;100.00
41202;BME280;26936;50.524;8.684;2023-02-19T07:24:44;99692.69;;;9.21;100.00
41202;BME280;26936;50.524;8.684;2023-02-19T07:27:10;99704.19;;;9.27;100.00
41202;BME280;26936;50.524;8.684;2023-02-19T07:29:35;99705.00;;;9.27;100.00
41202;BME280;26936;50.524;8.684;2023-02-19T07:32:00;99706.94;;;9.30;100.00
41202;BME280;26936;50.524;8.684;2023-02-19T07:34:26;99721.41;;;9.29;100.00
41202;BME280;26936;50.524;8.684;2023-02-19T07:36:51;99718.59;;;9.29;100.00
41202;BME280;26936;50.524;8.684;2023-02-19T07:39:17;99721.84;;;9.27;100.00
41202;BME280;26936;50.524;8.684;2023-02-19T07:41:42;99729.41;;;9.30;100.00
41202;BME280;26936;50.524;8.684;2023-02-19T07:44:07;99735.84;;;9.31;100.00
41202;BME280;26936;50.524;8.684;2023-02-19T07:46:32;99737.25;;;9.39;100.00
41202;BME280;26936;50.524;8.684;2023-02-19T07:48:58;99739.78;;;9.33;100.00
41202;BME280;26936;50.524;8.684;2023-02-19T07:51:24;99750.59;;;9.35;100.00
41202;BME280;26936;50.524;8.684;2023-02-19T07:53:50;99751.03;;;9.33;100.00
41202;BME280;26936;50.524;8.684;2023-02-19T07:56:16;99754.81;;;9.43;100.00
41202;BME280;26936;50.524;8.684;2023-02-19T07:58:41;99742.53;;;9.53;100.00
41202;BME280;26936;50.524;8.684;2023-02-19T08:01:13;99761.34;;;9.56;100.00
41202;BME280;26936;50.524;8.684;2023-02-19T08:03:38;99758.53;;;9.56;100.00
41202;BME280;26936;50.524;8.684;2023-02-19T08:06:04;99765.91;;;9.50;100.00
41202;BME280;26936;50.524;8.684;2023-02-19T08:08:30;99773.03;;;9.54;100.00
41202;BME280;26936;50.524;8.684;2023-02-19T08:10:58;99781.97;;;9.49;100.00
41202;BME280;26936;50.524;8.684;2023-02-19T08:13:43;99785.06;;;9.55;100.00
41202;BME280;26936;50.524;8.684;2023-02-19T08:16:11;99791.13;;;9.53;100.00
41202;BME280;26936;50.524;8.684;2023-02-19T08:18:37;99787.59;;;9.49;100.00
41202;BME280;26936;50.524;8.684;2023-02-19T08:21:02;99788.47;;;9.46;100.00
41202;BME280;26936;50.524;8.684;2023-02-19T08:23:28;99797.41;;;9.41;100.00
41202;BME280;26936;50.524;8.684;2023-02-19T08:25:56;99790.66;;;9.39;100.00
41202;BME280;26936;50.524;8.684;2023-02-19T08:28:22;99791.03;;;9.41;100.00
41202;BME280;26936;50.524;8.684;2023-02-19T08:30:47;99807.47;;;9.42;100.00
41202;BME280;26936;50.524;8.684;2023-02-19T08:33:17;99807.28;;;9.49;100.00
41202;BME280;26936;50.524;8.684;2023-02-19T08:35:44;99805.41;;;9.43;100.00
41202;BME280;26936;50.524;8.684;2023-02-19T08:38:11;99814.22;;;9.45;100.00
41202;BME280;26936;50.524;8.684;2023-02-19T08:40:38;99815.38;;;9.47;100.00
41202;BME280;26936;50.524;8.684;2023-02-19T08:43:09;99813.53;;;9.41;100.00
41202;BME280;26936;50.524;8.684;2023-02-19T08:45:40;99818.28;;;9.44;100.00
41202;BME280;26936;50.524;8.684;2023-02-19T08:48:06;99831.25;;;9.38;100.00
41202;BME280;26936;50.524;8.684;2023-02-19T08:50:33;99835.41;;;9.30;100.00
41202;BME280;26936;50.524;8.684;2023-02-19T08:52:59;99834.13;;;9.34;100.00
41202;BME280;26936;50.524;8.684;2023-02-19T08:55:25;99839.16;;;9.43;100.00
41202;BME280;26936;50.524;8.684;2023-02-19T08:57:50;99838.38;;;9.42;100.00
41202;BME280;26936;50.524;8.684;2023-02-19T09:00:16;99838.97;;;9.34;100.00
41202;BME280;26936;50.524;8.684;2023-02-19T09:02:41;99848.38;;;9.43;100.00
41202;BME280;26936;50.524;8.684;2023-02-19T09:05:07;99856.47;;;9.41;100.00
41202;BME280;26936;50.524;8.684;2023-02-19T09:07:32;99862.25;;;9.34;100.00
41202;BME280;26936;50.524;8.684;2023-02-19T09:09:57;99859.00;;;9.36;100.00
41202;BME280;26936;50.524;8.684;2023-02-19T09:12:23;99875.50;;;9.34;100.00
41202;BME280;26936;50.524;8.684;2023-02-19T09:14:49;99871.94;;;9.49;100.00
41202;BME280;26936;50.524;8.684;2023-02-19T09:17:14;99861.25;;;9.44;100.00
41202;BME280;26936;50.524;8.684;2023-02-19T09:19:40;99856.69;;;9.50;100.00
41202;BME280;26936;50.524;8.684;2023-02-19T09:22:05;99862.50;;;9.59;100.00
41202;BME280;26936;50.524;8.684;2023-02-19T09:24:31;99873.53;;;9.70;100.00
41202;BME280;26936;50.524;8.684;2023-02-19T09:26:56;99872.03;;;9.66;100.00
41202;BME280;26936;50.524;8.684;2023-02-19T09:29:24;99865.31;;;9.59;100.00
41202;BME280;26936;50.524;8.684;2023-02-19T09:31:50;99865.03;;;9.54;100.00
41202;BME280;26936;50.524;8.684;2023-02-19T09:34:15;99869.13;;;9.49;100.00
41202;BME280;26936;50.524;8.684;2023-02-19T09:36:40;99862.66;;;9.52;100.00
41202;BME280;26936;50.524;8.684;2023-02-19T09:39:07;99864.44;;;9.62;100.00
41202;BME280;26936;50.524;8.684;2023-02-19T09:41:36;99860.59;;;10.08;100.00
41202;BME280;26936;50.524;8.684;2023-02-19T09:44:03;99866.00;;;10.19;100.00
41202;BME280;26936;50.524;8.684;2023-02-19T09:46:45;99880.44;;;10.21;100.00
41202;BME280;26936;50.524;8.684;2023-02-19T09:49:16;99874.28;;;10.10;100.00
41202;BME280;26936;50.524;8.684;2023-02-19T09:51:45;99878.06;;;10.19;100.00
41202;BME280;26936;50.524;8.684;2023-02-19T09:54:19;99878.81;;;10.20;100.00
41202;BME280;26936;50.524;8.684;2023-02-19T09:56:46;99888.66;;;10.12;100.00
41202;BME280;26936;50.524;8.684;2023-02-19T09:59:19;99896.53;;;10.20;100.00
41202;BME280;26936;50.524;8.684;2023-02-19T10:01:46;99894.09;;;10.03;100.00
41202;BME280;26936;50.524;8.684;2023-02-19T10:04:13;99905.78;;;10.01;100.00
41202;BME280;26936;50.524;8.684;2023-02-19T10:06:38;99908.81;;;9.91;100.00
41202;BME280;26936;50.524;8.684;2023-02-19T10:09:20;99919.38;;;9.87;100.00
41202;BME280;26936;50.524;8.684;2023-02-19T10:11:47;99914.19;;;9.85;100.00
41202;BME280;26936;50.524;8.684;2023-02-19T10:14:16;99918.66;;;9.83;100.00
41202;BME280;26936;50.524;8.684;2023-02-19T10:16:45;99917.44;;;9.84;100.00
41202;BME280;26936;50.524;8.684;2023-02-19T10:19:13;99927.91;;;9.83;100.00
41202;BME280;26936;50.524;8.684;2023-02-19T10:21:38;99927.75;;;9.90;100.00
41202;BME280;26936;50.524;8.684;2023-02-19T10:24:06;99930.97;;;10.08;100.00
41202;BME280;26936;50.524;8.684;2023-02-19T10:26:32;99935.81;;;10.08;100.00
41202;BME280;26936;50.524;8.684;2023-02-19T10:29:02;99932.84;;;9.95;100.00
41202;BME280;26936;50.524;8.684;2023-02-19T10:31:30;99943.81;;;9.90;100.00
41202;BME280;26936;50.524;8.684;2023-02-19T10:33:57;99949.88;;;9.88;100.00
41202;BME280;26936;50.524;8.684;2023-02-19T10:36:51;99960.84;;;9.83;100.00
41202;BME280;26936;50.524;8.684;2023-02-19T10:41:56;99972.59;;;9.78;100.00
41202;BME280;26936;50.524;8.684;2023-02-19T10:44:25;99976.53;;;9.84;100.00
41202;BME280;26936;50.524;8.684;2023-02-19T10:46:53;99982.34;;;9.93;100.00
41202;BME280;26936;50.524;8.684;2023-02-19T10:49:25;99982.78;;;9.91;100.00
41202;BME280;26936;50.524;8.684;2023-02-19T10:51:53;99985.72;;;10.04;100.00
41202;BME280;26936;50.524;8.684;2023-02-19T10:54:31;99986.66;;;10.17;100.00
41202;BME280;26936;50.524;8.684;2023-02-19T10:59:52;99988.34;;;10.14;100.00
41202;BME280;26936;50.524;8.684;2023-02-19T11:02:19;99996.97;;;10.04;100.00
41202;BME280;26936;50.524;8.684;2023-02-19T11:07:53;100010.63;;;9.86;100.00
41202;BME280;26936;50.524;8.684;2023-02-19T11:10:25;100017.25;;;9.76;100.00
41202;BME280;26936;50.524;8.684;2023-02-19T11:12:54;100025.69;;;9.76;100.00
41202;BME280;26936;50.524;8.684;2023-02-19T11:18:03;100030.94;;;9.54;100.00
41202;BME280;26936;50.524;8.684;2023-02-19T11:20:29;100028.41;;;9.59;100.00
41202;BME280;26936;50.524;8.684;2023-02-19T11:22:59;100019.72;;;9.74;100.00
41202;BME280;26936;50.524;8.684;2023-02-19T11:25:26;100011.13;;;10.00;100.00
41202;BME280;26936;50.524;8.684;2023-02-19T11:30:45;100020.94;;;10.83;100.00
41202;BME280;26936;50.524;8.684;2023-02-19T11:35:44;100010.69;;;11.53;100.00
41202;BME280;26936;50.524;8.684;2023-02-19T11:38:11;99996.44;;;12.14;100.00
41202;BME280;26936;50.524;8.684;2023-02-19T11:40:42;100004.66;;;12.62;98.79
41202;BME280;26936;50.524;8.684;2023-02-19T11:45:48;100002.81;;;12.81;92.70
41202;BME280;26936;50.524;8.684;2023-02-19T11:51:40;99999.06;;;12.21;96.54
41202;BME280;26936;50.524;8.684;2023-02-19T11:54:21;100007.88;;;11.82;95.75
41202;BME280;26936;50.524;8.684;2023-02-19T11:57:08;100014.06;;;11.77;95.60
41202;BME280;26936;50.524;8.684;2023-02-19T11:59:47;100015.53;;;11.53;97.67
41202;BME280;26936;50.524;8.684;2023-02-19T12:02:41;100021.44;;;11.42;96.85
41202;BME280;26936;50.524;8.684;2023-02-19T12:05:33;100002.94;;;11.41;95.20
41202;BME280;26936;50.524;8.684;2023-02-19T12:09:13;100002.81;;;11.61;95.08
41202;BME280;26936;50.524;8.684;2023-02-19T12:17:38;100012.84;;;11.62;98.22
41202;BME280;26936;50.524;8.684;2023-02-19T12:20:25;100008.72;;;11.50;97.54
41202;BME280;26936;50.524;8.684;2023-02-19T12:23:23;100006.56;;;11.42;98.34
41202;BME280;26936;50.524;8.684;2023-02-19T12:26:15;100005.22;;;11.46;99.25
41202;BME280;26936;50.524;8.684;2023-02-19T12:45:13;99991.59;;;10.96;100.00
41202;BME280;26936;50.524;8.684;2023-02-19T12:47:41;99993.19;;;11.14;100.00
41202;BME280;26936;50.524;8.684;2023-02-19T12:50:25;99999.06;;;11.35;100.00
41202;BME280;26936;50.524;8.684;2023-02-19T12:52:57;99998.41;;;11.88;97.88
41202;BME280;26936;50.524;8.684;2023-02-19T12:55:33;99990.94;;;12.10;95.08
41202;BME280;26936;50.524;8.684;2023-02-19T12:58:02;100003.16;;;12.32;94.58
41202;BME280;26936;50.524;8.684;2023-02-19T13:00:41;100009.34;;;12.15;94.71
41202;BME280;26936;50.524;8.684;2023-02-19T13:03:17;100005.84;;;12.23;95.31
41202;BME280;26936;50.524;8.684;2023-02-19T13:05:51;100007.00;;;12.39;95.23
41202;BME280;26936;50.524;8.684;2023-02-19T13:08:34;100010.78;;;12.07;95.33
41202;BME280;26936;50.524;8.684;2023-02-19T13:11:09;100020.19;;;11.88;95.93
41202;BME280;26936;50.524;8.684;2023-02-19T13:16:08;100023.38;;;11.45;99.01
41202;BME280;26936;50.524;8.684;2023-02-19T13:18:45;100019.59;;;11.20;100.00
41202;BME280;26936;50.524;8.684;2023-02-19T13:21:13;100021.31;;;11.01;100.00
41202;BME280;26936;50.524;8.684;2023-02-19T13:24:07;100026.06;;;10.88;100.00
41202;BME280;26936;50.524;8.684;2023-02-19T13:27:01;100038.38;;;10.94;100.00
41202;BME280;26936;50.524;8.684;2023-02-19T13:33:01;100044.38;;;11.12;100.00
41202;BME280;26936;50.524;8.684;2023-02-19T13:38:16;100047.28;;;11.09;100.00
41202;BME280;26936;50.524;8.684;2023-02-19T13:40:53;100056.72;;;11.18;100.00
41202;BME280;26936;50.524;8.684;2023-02-19T13:43:24;100056.53;;;11.25;100.00
41202;BME280;26936;50.524;8.684;2023-02-19T13:45:58;100060.31;;;11.19;100.00
41202;BME280;26936;50.524;8.684;2023-02-19T13:48:33;100060.66;;;11.05;100.00
41202;BME280;26936;50.524;8.684;2023-02-19T14:14:48;100062.88;;;10.97;100.00
41202;BME280;26936;50.524;8.684;2023-02-19T14:17:28;100070.28;;;11.07;99.53
41202;BME280;26936;50.524;8.684;2023-02-19T14:30:41;100077.25;;;11.03;99.00
41202;BME280;26936;50.524;8.684;2023-02-19T14:33:09;100075.53;;;10.89;98.17
41202;BME280;26936;50.524;8.684;2023-02-19T14:35:39;100072.97;;;10.78;97.20
41202;BME280;26936;50.524;8.684;2023-02-19T14:38:05;100072.34;;;10.71;96.01
41202;BME280;26936;50.524;8.684;2023-02-19T14:40:37;100078.06;;;10.67;96.27
41202;BME280;26936;50.524;8.684;2023-02-19T14:43:05;100071.69;;;10.47;98.50
41202;BME280;26936;50.524;8.684;2023-02-19T14:45:41;100093.91;;;10.42;100.00
41202;BME280;26936;50.524;8.684;2023-02-19T14:48:16;100086.78;;;10.37;100.00
41202;BME280;26936;50.524;8.684;2023-02-19T14:50:46;100079.47;;;10.40;100.00
41202;BME280;26936;50.524;8.684;2023-02-19T14:53:14;100085.25;;;10.33;100.00
41202;BME280;26936;50.524;8.684;2023-02-19T14:55:41;100087.56;;;10.38;100.00